DEAGH EDAY-EDDB
Flight info
| Callsign | DEAGH |
|---|---|
| Flight time | N/A |
| Altitude | 4000 |
| Route | RENKI2A RENKI L619 KETAP KETAP1L |
| Aircraft | C172/L-SFG/C |
Departure
| Time | 2026-04-23 18:12 |
|---|---|
| Airport | Strausberg Airfield (EDAY) |
Arrival
| Time | N/A |
|---|---|
| Airport | Berlin Brandenburg Airport (EDDB) |
| Time | Latitude | Longitude | Altitude | Speed | Heading |
|---|---|---|---|---|---|
| 2026-04-23 18:06 | 52.58568 | 13.91492 | 263 ft | 0 kts | 338° |
| 2026-04-23 18:09 | 52.58573 | 13.91488 | 261 ft | 5 kts | 335° |
| 2026-04-23 18:10 | 52.58569 | 13.91406 | 263 ft | 11 kts | 250° |
| 2026-04-23 18:10 | 52.58533 | 13.91266 | 263 ft | 14 kts | 243° |
| 2026-04-23 18:10 | 52.58463 | 13.91226 | 262 ft | 16 kts | 174° |
| 2026-04-23 18:10 | 52.58317 | 13.91258 | 262 ft | 21 kts | 173° |
| 2026-04-23 18:11 | 52.58172 | 13.91294 | 262 ft | 22 kts | 174° |
| 2026-04-23 18:11 | 52.58033 | 13.91321 | 262 ft | 19 kts | 170° |
| 2026-04-23 18:11 | 52.57914 | 13.91351 | 262 ft | 12 kts | 168° |
| 2026-04-23 18:11 | 52.57954 | 13.91492 | 265 ft | 37 kts | 46° |
| 2026-04-23 18:12 | 52.58225 | 13.91999 | 268 ft | 77 kts | 43° |
| 2026-04-23 18:12 | 52.58606 | 13.92672 | 438 ft | 82 kts | 43° |
| 2026-04-23 18:12 | 52.58994 | 13.93334 | 683 ft | 82 kts | 40° |
| 2026-04-23 18:12 | 52.59188 | 13.94244 | 878 ft | 97 kts | 107° |
| 2026-04-23 18:13 | 52.58622 | 13.94854 | 1022 ft | 107 kts | 166° |
| 2026-04-23 18:13 | 52.57894 | 13.95309 | 1084 ft | 117 kts | 158° |
| 2026-04-23 18:13 | 52.57161 | 13.95732 | 1082 ft | 106 kts | 189° |
| 2026-04-23 18:13 | 52.56613 | 13.95152 | 1040 ft | 93 kts | 238° |
| 2026-04-23 18:14 | 52.56254 | 13.94254 | 1056 ft | 93 kts | 245° |
| 2026-04-23 18:14 | 52.55972 | 13.93279 | 1083 ft | 99 kts | 257° |
| 2026-04-23 18:14 | 52.55740 | 13.92210 | 1122 ft | 101 kts | 254° |
| 2026-04-23 18:14 | 52.55491 | 13.91278 | 1287 ft | 76 kts | 256° |
| 2026-04-23 18:15 | 52.55577 | 13.90599 | 1254 ft | 64 kts | 326° |
| 2026-04-23 18:15 | 52.55973 | 13.90195 | 1002 ft | 69 kts | 329° |
| 2026-04-23 18:15 | 52.56358 | 13.89778 | 908 ft | 64 kts | 324° |
| 2026-04-23 18:15 | 52.56758 | 13.89583 | 759 ft | 66 kts | 3° |
| 2026-04-23 18:16 | 52.57164 | 13.90018 | 572 ft | 77 kts | 40° |
| 2026-04-23 18:16 | 52.57510 | 13.90687 | 348 ft | 78 kts | 37° |
| 2026-04-23 18:16 | 52.57850 | 13.91275 | 262 ft | 58 kts | 43° |
| 2026-04-23 18:17 | 52.58502 | 13.92454 | 465 ft | 80 kts | 79° |
| 2026-04-23 18:17 | 52.58380 | 13.93347 | 644 ft | 89 kts | 123° |
| 2026-04-23 18:17 | 52.57996 | 13.94222 | 850 ft | 98 kts | 127° |
| 2026-04-23 18:17 | 52.57715 | 13.95306 | 934 ft | 110 kts | 75° |
| 2026-04-23 18:18 | 52.58190 | 13.95977 | 1202 ft | 85 kts | 0° |
| 2026-04-23 18:18 | 52.58579 | 13.96672 | 1449 ft | 101 kts | 89° |
| 2026-04-23 18:18 | 52.58211 | 13.97615 | 1709 ft | 98 kts | 127° |
| 2026-04-23 18:18 | 52.57775 | 13.98458 | 1872 ft | 100 kts | 131° |
| 2026-04-23 18:19 | 52.57250 | 13.99238 | 1992 ft | 106 kts | 165° |
| 2026-04-23 18:19 | 52.56552 | 13.99726 | 2133 ft | 113 kts | 161° |
| 2026-04-23 18:19 | 52.55833 | 13.99607 | 2249 ft | 102 kts | 235° |
| 2026-04-23 18:19 | 52.55458 | 13.98664 | 2383 ft | 102 kts | 249° |
| 2026-04-23 18:20 | 52.55072 | 13.97660 | 2489 ft | 105 kts | 250° |
| 2026-04-23 18:20 | 52.54685 | 13.96627 | 2596 ft | 107 kts | 250° |
| 2026-04-23 18:20 | 52.54438 | 13.95539 | 2706 ft | 98 kts | 277° |
| 2026-04-23 18:20 | 52.54381 | 13.94411 | 2815 ft | 99 kts | 275° |
| 2026-04-23 18:21 | 52.54324 | 13.93277 | 2915 ft | 100 kts | 275° |
| 2026-04-23 18:21 | 52.54267 | 13.92153 | 3009 ft | 100 kts | 276° |
| 2026-04-23 18:21 | 52.54199 | 13.90989 | 3075 ft | 104 kts | 275° |
| 2026-04-23 18:21 | 52.54136 | 13.89837 | 3068 ft | 97 kts | 275° |
| 2026-04-23 18:22 | 52.54060 | 13.88781 | 3068 ft | 90 kts | 275° |
| 2026-04-23 18:22 | 52.53979 | 13.87799 | 3072 ft | 84 kts | 275° |
| 2026-04-23 18:22 | 52.53900 | 13.86859 | 3071 ft | 82 kts | 274° |
| 2026-04-23 18:22 | 52.53717 | 13.85952 | 3072 ft | 83 kts | 266° |
| 2026-04-23 18:23 | 52.53588 | 13.85366 | 3077 ft | 82 kts | 265° |
| 2026-04-23 18:23 | 52.53127 | 13.83281 | 3096 ft | 88 kts | 265° |
| 2026-04-23 18:24 | 52.52692 | 13.81265 | 3092 ft | 99 kts | 259° |
| 2026-04-23 18:24 | 52.52424 | 13.80205 | 3091 ft | 102 kts | 260° |
| 2026-04-23 18:24 | 52.52158 | 13.79116 | 3093 ft | 104 kts | 260° |
| 2026-04-23 18:25 | 52.51624 | 13.76921 | 3093 ft | 104 kts | 260° |
| 2026-04-23 18:25 | 52.51351 | 13.75814 | 3090 ft | 105 kts | 261° |
| 2026-04-23 18:25 | 52.51070 | 13.74716 | 3088 ft | 104 kts | 260° |
| 2026-04-23 18:25 | 52.50788 | 13.73620 | 3087 ft | 104 kts | 260° |
| 2026-04-23 18:26 | 52.50505 | 13.72521 | 3090 ft | 105 kts | 260° |
| 2026-04-23 18:26 | 52.50221 | 13.71417 | 3088 ft | 105 kts | 260° |
| 2026-04-23 18:26 | 52.49946 | 13.70312 | 3091 ft | 105 kts | 260° |
| 2026-04-23 18:26 | 52.49674 | 13.69198 | 3087 ft | 106 kts | 260° |
| 2026-04-23 18:27 | 52.49400 | 13.68077 | 3086 ft | 105 kts | 260° |
| 2026-04-23 18:27 | 52.49125 | 13.66962 | 3083 ft | 105 kts | 260° |
| 2026-04-23 18:27 | 52.48827 | 13.65864 | 3081 ft | 107 kts | 255° |
| 2026-04-23 18:27 | 52.48478 | 13.64780 | 3082 ft | 107 kts | 255° |
| 2026-04-23 18:28 | 52.48128 | 13.63703 | 3082 ft | 107 kts | 255° |
| 2026-04-23 18:28 | 52.47784 | 13.62621 | 3080 ft | 107 kts | 255° |
| 2026-04-23 18:28 | 52.47444 | 13.61535 | 3078 ft | 107 kts | 256° |
| 2026-04-23 18:28 | 52.47103 | 13.60467 | 3079 ft | 107 kts | 255° |
| 2026-04-23 18:29 | 52.46763 | 13.59390 | 3070 ft | 107 kts | 255° |
| 2026-04-23 18:29 | 52.46420 | 13.58308 | 3069 ft | 107 kts | 255° |
| 2026-04-23 18:29 | 52.46078 | 13.57237 | 3067 ft | 105 kts | 256° |
| 2026-04-23 18:29 | 52.45774 | 13.56162 | 3069 ft | 102 kts | 258° |
| 2026-04-23 18:30 | 52.45482 | 13.55067 | 2998 ft | 104 kts | 261° |
| 2026-04-23 18:30 | 52.45222 | 13.53972 | 2982 ft | 102 kts | 261° |
| 2026-04-23 18:30 | 52.44984 | 13.52888 | 2987 ft | 101 kts | 261° |
| 2026-04-23 18:30 | 52.44746 | 13.51799 | 2979 ft | 102 kts | 261° |
| 2026-04-23 18:31 | 52.44506 | 13.50704 | 2993 ft | 103 kts | 261° |
| 2026-04-23 18:31 | 52.44267 | 13.49588 | 2990 ft | 103 kts | 262° |
| 2026-04-23 18:31 | 52.44025 | 13.48474 | 2986 ft | 104 kts | 262° |
| 2026-04-23 18:31 | 52.43834 | 13.47363 | 2997 ft | 102 kts | 265° |
| 2026-04-23 18:32 | 52.43648 | 13.46246 | 2993 ft | 101 kts | 265° |
| 2026-04-23 18:32 | 52.43461 | 13.45135 | 2989 ft | 100 kts | 265° |
| 2026-04-23 18:32 | 52.43281 | 13.44071 | 2880 ft | 89 kts | 266° |
| 2026-04-23 18:32 | 52.43103 | 13.43106 | 2624 ft | 89 kts | 265° |
| 2026-04-23 18:33 | 52.42865 | 13.42174 | 2475 ft | 96 kts | 231° |
| 2026-04-23 18:33 | 52.42209 | 13.41863 | 2499 ft | 101 kts | 202° |
| 2026-04-23 18:33 | 52.41474 | 13.42092 | 2505 ft | 113 kts | 167° |
| 2026-04-23 18:33 | 52.40783 | 13.42763 | 2504 ft | 119 kts | 136° |
| 2026-04-23 18:34 | 52.40259 | 13.43816 | 2497 ft | 119 kts | 115° |
| 2026-04-23 18:34 | 52.40054 | 13.45033 | 2478 ft | 105 kts | 102° |
| 2026-04-23 18:34 | 52.39873 | 13.46091 | 2442 ft | 89 kts | 80° |
| 2026-04-23 18:34 | 52.39931 | 13.47090 | 2423 ft | 89 kts | 66° |
| 2026-04-23 18:35 | 52.40113 | 13.48094 | 2466 ft | 94 kts | 53° |
| 2026-04-23 18:35 | 52.40357 | 13.49123 | 2461 ft | 101 kts | 60° |
| 2026-04-23 18:35 | 52.40557 | 13.50264 | 2419 ft | 107 kts | 66° |
| 2026-04-23 18:35 | 52.40742 | 13.51478 | 2400 ft | 109 kts | 66° |
| 2026-04-23 18:36 | 52.40921 | 13.52657 | 2309 ft | 108 kts | 64° |
| 2026-04-23 18:36 | 52.41031 | 13.53868 | 2081 ft | 113 kts | 99° |
| 2026-04-23 18:36 | 52.40570 | 13.54983 | 1894 ft | 120 kts | 142° |
| 2026-04-23 18:36 | 52.39818 | 13.55614 | 1460 ft | 113 kts | 163° |
| 2026-04-23 18:37 | 52.39094 | 13.55806 | 986 ft | 96 kts | 186° |
| 2026-04-23 18:37 | 52.38536 | 13.55474 | 716 ft | 82 kts | 229° |
| 2026-04-23 18:37 | 52.38244 | 13.54717 | 523 ft | 75 kts | 251° |
| 2026-04-23 18:37 | 52.38053 | 13.53925 | 399 ft | 78 kts | 252° |
| 2026-04-23 18:38 | 52.37849 | 13.53067 | 271 ft | 82 kts | 252° |
| 2026-04-23 18:38 | 52.37643 | 13.52198 | 193 ft | 81 kts | 252° |
| 2026-04-23 18:38 | 52.37431 | 13.51301 | 178 ft | 95 kts | 251° |
| 2026-04-23 18:38 | 52.37185 | 13.50294 | 377 ft | 93 kts | 250° |
| 2026-04-23 18:39 | 52.37266 | 13.49365 | 581 ft | 93 kts | 321° |
| 2026-04-23 18:39 | 52.37880 | 13.49029 | 749 ft | 93 kts | 343° |
| 2026-04-23 18:39 | 52.38494 | 13.48777 | 923 ft | 92 kts | 342° |
| 2026-04-23 18:39 | 52.39082 | 13.48555 | 1228 ft | 77 kts | 342° |
| 2026-04-23 18:40 | 52.39584 | 13.48371 | 1569 ft | 62 kts | 340° |
| 2026-04-23 18:40 | 52.39991 | 13.48211 | 1737 ft | 65 kts | 339° |
| 2026-04-23 18:40 | 52.40461 | 13.48012 | 1846 ft | 75 kts | 340° |
| 2026-04-23 18:40 | 52.40993 | 13.47795 | 1947 ft | 83 kts | 341° |
| 2026-04-23 18:41 | 52.41572 | 13.47565 | 2039 ft | 88 kts | 342° |
| 2026-04-23 18:41 | 52.41957 | 13.47348 | 2082 ft | 90 kts | 322° |
| 2026-04-23 18:41 | 52.42226 | 13.46424 | 2217 ft | 90 kts | 297° |
| 2026-04-23 18:41 | 52.42442 | 13.45478 | 2369 ft | 88 kts | 295° |
| 2026-04-23 18:42 | 52.42649 | 13.44536 | 2490 ft | 90 kts | 296° |
| 2026-04-23 18:42 | 52.42878 | 13.43525 | 2493 ft | 96 kts | 296° |
| 2026-04-23 18:42 | 52.43066 | 13.42494 | 2488 ft | 94 kts | 292° |
| 2026-04-23 18:42 | 52.43238 | 13.41471 | 2483 ft | 93 kts | 292° |
| 2026-04-23 18:43 | 52.43404 | 13.40446 | 2493 ft | 94 kts | 292° |
| 2026-04-23 18:43 | 52.43579 | 13.39388 | 2498 ft | 98 kts | 292° |
| 2026-04-23 18:43 | 52.43825 | 13.38365 | 2498 ft | 96 kts | 317° |